Carapicuiba, Brazil
Current Conditions -  °F | °C
As of 7:00 AM on Thursday 27 Nov 2014 (Local Time) from SBMT Reporting Station
Broken Clouds Broken Clouds  
Wind Chill: 70°   Ceiling: 1700
Heat Index: 70°   Visibility: 6mi
Dew Point: 64°   Wind: 7mph
Humidity: 83%   Direction: 170°S
Pressure: 29.94"   Gusts: NA
Location:  23.52°S, 46.84°W
Report Text: SBMT 270900Z 17006KT 9000 SCT008 BKN017 BKN070 21/18 Q1014
Loading
Personal Weather Stations






























Interactive Weather Map New forecast layout! Learn more

10-Day Weather Forecast

Advertisements
Track Severe Weather on mobile